Time;durP1;ratioP1;P1;durP2;ratioP2;P2;SDS_P1;SDS_P2;PMS_P1;PMS_P2;Temp;Humidity;BMP_temperature;BMP_pressure;BME280_temperature;BME280_humidity;BME280_pressure;Samples;Min_cycle;Max_cycle;Signal;HPM_P1;HPM_P2
2023/01/30 07:01:41;;;;;;;9.10;4.85;;;;;;;-145.79;81.76;78693.78;5270923;28;20725;-66
2023/01/30 07:04:12;;;;;;;14.55;4.90;;;;;;;-145.79;81.21;78681.06;5258686;28;20033;-66
2023/01/30 07:06:45;;;;;;;9.80;5.03;;;;;;;-145.79;79.95;78676.81;5247687;28;20022;-66
2023/01/30 07:09:16;;;;;;;15.48;5.20;;;;;;;-145.79;79.84;78687.41;5259314;28;20033;-66
2023/01/30 07:11:49;;;;;;;8.15;3.80;;;;;;;-145.79;80.10;78704.38;5240567;28;20104;-66
2023/01/30 07:14:21;;;;;;;9.07;4.75;;;;;;;-145.79;79.98;78708.63;5238629;28;20018;-66
2023/01/30 07:16:52;;;;;;;14.20;4.40;;;;;;;-145.79;79.96;78712.88;5238622;28;20036;-66
2023/01/30 07:19:23;;;;;;;10.63;4.43;;;;;;;-145.79;79.80;78714.97;5253554;28;20061;-66
2023/01/30 07:21:54;;;;;;;9.40;3.83;;;;;;;-145.79;79.73;78723.47;5258943;28;20472;-66
2023/01/30 07:24:26;;;;;;;21.02;4.55;;;;;;;-145.79;79.91;78723.47;5258846;28;20044;-66
2023/01/30 07:26:57;;;;;;;16.23;4.40;;;;;;;-145.79;79.66;78738.31;5237365;28;20112;-66
2023/01/30 07:29:28;;;;;;;13.32;4.28;;;;;;;-145.79;79.47;78738.31;5238131;28;20083;-66
2023/01/30 07:32:12;;;;;;;15.55;5.47;;;;;;;-145.79;79.61;78734.06;5238425;28;20026;-66
2023/01/30 07:34:43;;;;;;;17.63;4.93;;;;;;;-145.79;79.48;78748.91;5248798;28;20021;-67
2023/01/30 07:37:15;;;;;;;11.20;4.75;;;;;;;-145.79;79.53;78748.91;5258872;28;20028;-66
2023/01/30 07:39:46;;;;;;;10.20;3.97;;;;;;;-145.79;79.42;78751.03;5257943;28;20033;-66
2023/01/30 07:42:17;;;;;;;12.77;4.60;;;;;;;-145.79;79.47;78755.28;5258393;28;20096;-66
2023/01/30 07:44:51;;;;;;;11.18;3.70;;;;;;;-145.79;79.52;78765.88;5258371;28;20025;-66
2023/01/30 07:47:22;;;;;;;10.38;4.10;;;;;;;-145.79;79.62;78770.13;5257018;28;20029;-66
2023/01/30 07:49:54;;;;;;;14.88;5.07;;;;;;;-145.79;79.13;78776.47;5252923;28;20033;-66
2023/01/30 07:52:25;;;;;;;12.93;4.03;;;;;;;-145.79;78.56;78772.22;5245687;28;20448;-66
2023/01/30 07:54:56;;;;;;;10.15;3.90;;;;;;;-145.79;78.69;78776.47;5244007;28;20033;-66
2023/01/30 07:57:28;;;;;;;13.77;4.43;;;;;;;-145.79;78.33;78776.47;5237744;28;20032;-66
2023/01/30 08:00:00;;;;;;;11.65;4.18;;;;;;;-145.79;78.21;78776.47;5257865;28;20138;-66
2023/01/30 08:02:31;;;;;;;12.48;4.03;;;;;;;-145.79;77.76;78776.47;5257754;28;20049;-66
2023/01/30 08:05:02;;;;;;;13.82;3.80;;;;;;;-145.79;77.36;78778.59;5258158;28;20106;-66
2023/01/30 08:07:34;;;;;;;16.30;5.55;;;;;;;-145.79;76.62;78780.72;5257320;28;20017;-66
2023/01/30 08:10:05;;;;;;;18.10;5.82;;;;;;;-145.79;76.84;78782.84;5257760;28;20147;-67
2023/01/30 08:12:38;;;;;;;11.18;3.92;;;;;;;-145.79;76.36;78784.97;5246833;28;20030;-66
2023/01/30 08:15:10;;;;;;;16.83;6.00;;;;;;;-145.79;76.03;78782.84;5243219;28;20064;-66
2023/01/30 08:17:41;;;;;;;13.70;4.68;;;;;;;-145.79;74.94;78789.19;5244403;28;20068;-66
2023/01/30 08:20:15;;;;;;;13.65;3.70;;;;;;;-145.79;74.60;78799.81;5243963;28;20535;-66
2023/01/30 08:22:46;;;;;;;17.92;5.05;;;;;;;-145.79;74.60;78795.56;5243601;28;20021;-66
2023/01/30 08:25:18;;;;;;;14.65;6.00;;;;;;;-145.79;74.34;78804.03;5228531;28;20022;-66
2023/01/30 08:27:50;;;;;;;14.18;4.03;;;;;;;-145.79;74.54;78806.16;5242895;28;20021;-67
2023/01/30 08:30:28;;;;;;;18.60;4.25;;;;;;;-145.79;74.09;78814.63;5243000;28;20037;-66
2023/01/30 08:32:59;;;;;;;16.77;4.45;;;;;;;-145.79;74.14;78818.88;5244064;28;20381;-66
2023/01/30 08:35:30;;;;;;;19.40;5.13;;;;;;;-145.79;73.48;78801.91;5243231;28;20033;-66
2023/01/30 08:38:06;;;;;;;12.48;4.07;;;;;;;-145.79;73.60;78801.91;5243603;28;20468;-66
2023/01/30 08:40:37;;;;;;;16.85;4.25;;;;;;;-145.79;73.53;78797.69;5243498;28;20098;-66
2023/01/30 08:43:09;;;;;;;16.17;4.43;;;;;;;-145.79;72.90;78806.16;5242746;28;20029;-66
2023/01/30 08:45:40;;;;;;;19.95;7.65;;;;;;;-145.79;72.97;78804.03;5243674;28;20052;-66
2023/01/30 08:48:15;;;;;;;13.93;4.35;;;;;;;-145.79;72.86;78795.56;5243822;28;20041;-67
2023/01/30 08:50:46;;;;;;;18.13;4.15;;;;;;;-145.79;72.13;78801.91;5242571;28;20376;-66
2023/01/30 08:53:18;;;;;;;12.45;3.97;;;;;;;-145.79;72.07;78801.91;5243220;28;20022;-66
2023/01/30 08:55:51;;;;;;;14.82;4.15;;;;;;;-145.79;71.94;78797.69;5243447;28;20104;-66
2023/01/30 08:58:23;;;;;;;19.02;5.35;;;;;;;-145.79;71.53;78789.19;5242830;28;20086;-66
2023/01/30 09:00:54;;;;;;;19.35;6.70;;;;;;;-145.79;71.71;78797.69;5242817;28;20121;-67
2023/01/30 09:03:25;;;;;;;20.88;7.57;;;;;;;-145.79;71.72;78789.19;5243517;28;20479;-66
2023/01/30 09:05:57;;;;;;;12.68;4.07;;;;;;;-145.79;71.69;78791.31;5242180;28;20030;-66
2023/01/30 09:08:28;;;;;;;13.73;4.68;;;;;;;-145.79;71.09;78795.56;5243280;28;20100;-66
2023/01/30 09:11:01;;;;;;;20.23;5.35;;;;;;;-145.79;71.06;78797.69;5230847;28;20045;-67
2023/01/30 09:13:34;;;;;;;14.95;4.93;;;;;;;-145.79;70.58;78795.56;5223687;28;20022;-66
2023/01/30 09:16:05;;;;;;;14.82;3.55;;;;;;;-145.79;71.14;78791.31;5242965;28;20025;-66
2023/01/30 09:18:40;;;;;;;13.07;4.80;;;;;;;-145.79;70.38;78789.19;5241913;28;20091;-66
2023/01/30 09:21:12;;;;;;;18.52;4.45;;;;;;;-145.79;70.75;78782.84;5242968;28;20042;-66
2023/01/30 09:23:44;;;;;;;13.60;5.13;;;;;;;-145.79;69.70;78784.97;5241570;28;20022;-66
2023/01/30 09:26:18;;;;;;;17.48;4.47;;;;;;;-145.79;69.85;78784.97;5241799;28;20022;-66
2023/01/30 09:28:49;;;;;;;15.10;4.50;;;;;;;-145.79;70.17;78784.97;5242522;28;20029;-65
2023/01/30 09:31:20;;;;;;;18.52;4.85;;;;;;;-145.79;70.58;78780.72;5242872;28;20021;-64
2023/01/30 09:33:52;;;;;;;15.60;4.32;;;;;;;-145.79;70.12;78780.72;5241689;28;20106;-66
2023/01/30 09:36:23;;;;;;;14.18;5.15;;;;;;;-145.79;69.41;78768.00;5242306;28;20436;-66
2023/01/30 09:38:54;;;;;;;11.43;3.97;;;;;;;-145.79;68.96;78772.22;5241957;28;20064;-66
2023/01/30 09:41:45;;;;;;;12.32;4.32;;;;;;;-145.79;68.98;78772.22;5241962;28;20092;-66
2023/01/30 09:44:57;;;;;;;15.07;5.45;;;;;;;-145.79;68.98;78759.50;5242433;28;20026;-66
2023/01/30 09:47:50;;;;;;;18.80;5.05;;;;;;;-145.79;68.10;78755.28;5241482;28;20025;-67
2023/01/30 09:50:27;;;;;;;14.63;4.72;;;;;;;-145.79;68.40;78751.03;5242457;28;20119;-67
2023/01/30 09:53:21;;;;;;;18.85;3.90;;;;;;;-145.79;67.80;78748.91;5240946;28;20091;-66
2023/01/30 09:55:57;;;;;;;13.25;4.18;;;;;;;-145.79;68.42;78755.28;5238774;28;20079;-66
2023/01/30 09:58:41;;;;;;;12.88;4.05;;;;;;;-145.79;67.23;78759.50;5242174;28;20407;-66
2023/01/30 10:01:27;;;;;;;16.13;4.55;;;;;;;-145.79;67.61;78757.38;5240866;28;20057;-66
2023/01/30 10:04:04;;;;;;;13.77;3.80;;;;;;;-145.79;68.09;78761.63;5241874;28;20017;-66
2023/01/30 10:06:42;;;;;;;18.08;4.65;;;;;;;-145.79;67.42;78763.75;5241784;28;20037;-65
2023/01/30 10:09:41;;;;;;;14.77;5.15;;;;;;;-145.79;67.48;78761.63;5241137;28;20071;-66
2023/01/30 10:12:27;;;;;;;8.15;3.60;;;;;;;-145.79;66.33;78753.16;5241528;28;20449;-66
2023/01/30 10:15:13;;;;;;;12.55;3.90;;;;;;;-145.79;66.92;78755.28;5241030;28;20021;-66
2023/01/30 10:17:44;;;;;;;12.95;4.25;;;;;;;-145.79;66.49;78757.38;5241557;28;20026;-66
2023/01/30 10:20:34;;;;;;;9.02;3.80;;;;;;;-145.79;66.33;78751.03;5241559;28;20032;-66
2023/01/30 10:23:17;;;;;;;17.15;4.13;;;;;;;-145.79;65.86;78748.91;5235154;28;20068;-66
2023/01/30 10:25:54;;;;;;;13.32;4.82;;;;;;;-145.79;65.99;78753.16;5232307;28;20480;-65
2023/01/30 10:28:37;;;;;;;10.13;4.25;;;;;;;-145.79;65.88;78746.78;5240459;28;20025;-66
2023/01/30 10:31:18;;;;;;;16.25;5.10;;;;;;;-145.79;65.67;78746.78;5241306;28;20036;-66
2023/01/30 10:33:59;;;;;;;12.52;4.13;;;;;;;-145.79;65.74;78751.03;5241402;28;20117;-66
2023/01/30 10:36:50;;;;;;;13.23;5.45;;;;;;;-145.79;65.55;78744.66;5240612;28;20038;-66
2023/01/30 10:39:30;;;;;;;18.95;4.07;;;;;;;-145.79;65.36;78738.31;5241233;28;20111;-67
2023/01/30 10:42:08;;;;;;;12.60;4.13;;;;;;;-145.79;64.74;78736.19;5241186;28;20025;-67
2023/01/30 10:44:43;;;;;;;23.75;5.20;;;;;;;-145.79;65.05;78746.78;5241065;28;20029;-67
2023/01/30 10:47:40;;;;;;;12.65;4.28;;;;;;;-145.79;63.89;78734.06;5241215;28;20049;-66
2023/01/30 10:50:28;;;;;;;11.07;3.90;;;;;;;-145.79;63.79;78742.53;5219825;28;20026;-67
2023/01/30 10:53:28;;;;;;;14.55;5.20;;;;;;;-145.79;64.28;78740.44;5234026;28;20032;-67
2023/01/30 10:56:12;;;;;;;17.17;4.35;;;;;;;-145.79;64.58;78755.28;5237858;28;20120;-67
2023/01/30 10:58:57;;;;;;;9.25;3.97;;;;;;;-145.79;64.60;78761.63;5239593;28;20053;-66
2023/01/30 11:01:46;;;;;;;9.73;3.22;;;;;;;-145.79;64.66;78768.00;5222325;28;20054;-66
2023/01/30 11:04:38;;;;;;;13.55;4.18;;;;;;;-145.79;63.68;78759.50;5225112;28;20033;-67
2023/01/30 11:07:12;;;;;;;13.10;4.18;;;;;;;-145.79;64.06;78751.03;5220193;28;20026;-66
2023/01/30 11:09:46;;;;;;;12.98;4.35;;;;;;;-145.79;63.85;78763.75;5220365;28;20025;-67
2023/01/30 11:12:20;;;;;;;17.52;4.75;;;;;;;-145.79;64.43;78770.13;5219653;28;20370;-66
2023/01/30 11:15:12;;;;;;;10.48;4.07;;;;;;;-145.79;63.95;78770.13;5220315;28;20477;-67
2023/01/30 11:17:44;;;;;;;10.70;4.30;;;;;;;-145.79;62.90;78772.22;5219859;28;20061;-67
2023/01/30 11:20:23;;;;;;;17.48;5.43;;;;;;;-145.79;63.31;78759.50;5220319;28;20032;-67
2023/01/30 11:23:06;;;;;;;18.42;5.72;;;;;;;-145.79;63.08;78763.75;5231934;28;20025;-67
2023/01/30 11:25:57;;;;;;;11.70;4.18;;;;;;;-145.79;62.90;78759.50;5240154;28;20026;-67
2023/01/30 11:28:34;;;;;;;13.43;6.38;;;;;;;-145.79;62.32;78768.00;5240785;28;20025;-66
2023/01/30 11:31:17;;;;;;;12.27;4.03;;;;;;;-145.79;63.03;78759.50;5240675;28;20105;-67
2023/01/30 11:34:00;;;;;;;10.48;4.05;;;;;;;-145.79;62.27;78755.28;5239387;28;20103;-68
2023/01/30 11:36:34;;;;;;;13.10;4.18;;;;;;;-145.79;62.27;78768.00;5240994;28;20044;-68
2023/01/30 11:39:11;;;;;;;13.50;3.92;;;;;;;-145.79;62.54;78761.63;5239686;28;20075;-68
2023/01/30 11:42:02;;;;;;;11.60;4.30;;;;;;;-145.79;62.12;78759.50;5240731;28;20072;-67
2023/01/30 11:44:35;;;;;;;11.05;4.00;;;;;;;-145.79;62.23;78751.03;5220321;28;20026;-74
2023/01/30 11:47:12;;;;;;;18.25;5.28;;;;;;;-145.79;63.27;78738.31;5221017;28;20057;-72
2023/01/30 11:49:51;;;;;;;17.15;4.82;;;;;;;-145.79;63.54;78738.31;5239905;28;20034;-71
2023/01/30 11:52:37;;;;;;;18.20;5.63;;;;;;;-145.79;62.28;78742.53;5242888;28;20045;-70
2023/01/30 11:55:13;;;;;;;12.85;4.40;;;;;;;-145.79;61.83;78757.38;5243647;28;20112;-70
2023/01/30 11:57:57;;;;;;;12.32;4.72;;;;;;;-145.79;62.27;78768.00;5240999;28;20407;-70
2023/01/30 12:00:40;;;;;;;14.23;4.25;;;;;;;-145.79;62.19;78757.38;5242304;28;20451;-70
2023/01/30 12:03:17;;;;;;;13.25;5.20;;;;;;;-145.79;62.48;78761.63;5244077;28;20353;-70
2023/01/30 12:05:48;;;;;;;10.63;4.95;;;;;;;-145.79;62.65;78776.47;5243738;28;20033;-70
2023/01/30 12:08:19;;;;;;;11.77;3.60;;;;;;;-145.79;62.36;78770.13;5242931;28;20018;-70
2023/01/30 12:10:58;;;;;;;16.38;4.65;;;;;;;-145.79;62.38;78768.00;5243492;28;20044;-71
2023/01/30 12:13:37;;;;;;;13.40;4.93;;;;;;;-145.79;62.78;78759.50;5243773;28;20044;-70
2023/01/30 12:16:17;;;;;;;14.57;5.20;;;;;;;-145.79;62.43;78755.28;5243971;28;20041;-70
2023/01/30 12:19:03;;;;;;;13.05;4.13;;;;;;;-145.79;62.21;78751.03;5243424;28;20037;-70
2023/01/30 12:21:37;;;;;;;14.40;4.28;;;;;;;-145.79;61.94;78751.03;5242763;28;20037;-70
2023/01/30 12:24:24;;;;;;;19.83;5.55;;;;;;;-145.79;61.25;78734.06;5243488;28;20082;-71
2023/01/30 12:27:41;;;;;;;14.63;4.20;;;;;;;-145.79;61.67;78734.06;5243986;28;20116;-71
2023/01/30 12:30:58;;;;;;;15.55;4.85;;;;;;;-145.79;61.74;78719.22;5239019;28;20049;-71
2023/01/30 12:33:33;;;;;;;23.38;11.48;;;;;;;-145.79;61.20;78717.09;5243403;28;20044;-70
2023/01/30 12:36:22;;;;;;;;;;;;;;;-145.79;60.76;78717.09;5242913;28;20087;-70
2023/01/30 12:39:31;;;;;;;18.38;6.00;;;;;;;-145.79;61.18;78717.09;5223277;28;19913;-71
2023/01/30 12:42:05;;;;;;;11.65;4.63;;;;;;;-145.79;61.15;78723.47;5241897;28;20156;-70
2023/01/30 12:45:01;;;;;;;16.27;5.05;;;;;;;-145.79;61.27;78734.06;5242862;28;20357;-70
2023/01/30 12:47:35;;;;;;;12.33;6.13;;;;;;;-145.79;61.26;78738.31;5243393;28;20040;-70
2023/01/30 12:50:22;;;;;;;14.85;6.00;;;;;;;-145.79;61.37;78738.31;5242172;28;20745;-71
2023/01/30 12:53:15;;;;;;;;;;;;;;;-145.79;61.57;78725.59;5243602;28;20375;-71
2023/01/30 12:56:14;;;;;;;14.00;4.10;;;;;;;-145.79;61.58;78751.03;5242563;28;19916;-70
2023/01/30 12:59:14;;;;;;;17.27;5.10;;;;;;;-145.79;61.62;78744.66;5242341;28;20423;-71
2023/01/30 13:02:01;;;;;;;14.25;6.03;;;;;;;-145.79;60.70;78755.28;5242460;28;20061;-70
2023/01/30 13:04:35;;;;;;;24.30;14.73;;;;;;;-145.79;60.04;78768.00;5242160;28;20024;-70
2023/01/30 13:08:04;;;;;;;16.50;5.85;;;;;;;-145.79;59.86;78765.88;5242412;28;20333;-71
2023/01/30 13:10:53;;;;;;;13.23;4.22;;;;;;;-145.79;59.63;78753.16;5240694;28;20045;-73
2023/01/30 13:13:51;;;;;;;21.88;6.25;;;;;;;-145.79;59.29;78757.38;5242660;28;20032;-68
2023/01/30 13:16:35;;;;;;;14.50;4.63;;;;;;;-145.79;58.95;78757.38;5241926;28;20071;-71
2023/01/30 13:19:15;;;;;;;10.82;4.72;;;;;;;-145.79;59.58;78753.16;5232542;28;20021;-70
2023/01/30 13:21:58;;;;;;;11.45;4.35;;;;;;;-145.79;59.07;78751.03;5242395;28;20051;-72
2023/01/30 13:24:41;;;;;;;10.98;4.10;;;;;;;-145.79;60.01;78746.78;5242195;28;20473;-74
2023/01/30 13:27:20;;;;;;;15.55;4.00;;;;;;;-145.79;59.44;78740.44;5242351;28;20033;-76
2023/01/30 13:29:52;;;;;;;17.08;5.97;;;;;;;-145.79;58.99;78753.16;5242500;28;20033;-73
2023/01/30 13:32:44;;;;;;;18.73;6.75;;;;;;;-145.79;58.85;78755.28;5241308;28;20036;-71
2023/01/30 13:35:25;;;;;;;16.52;5.05;;;;;;;-145.79;59.08;78753.16;5241829;28;20018;-71
2023/01/30 13:37:59;;;;;;;12.15;4.75;;;;;;;-145.79;59.79;78774.34;5241871;28;20033;-71
2023/01/30 13:40:38;;;;;;;16.75;4.63;;;;;;;-145.79;59.89;78772.22;5241199;28;20029;-70
2023/01/30 13:43:19;;;;;;;21.90;6.13;;;;;;;-145.79;58.86;78755.28;5241797;28;20099;-71
2023/01/30 13:45:53;;;;;;;15.68;4.47;;;;;;;-145.79;58.04;78753.16;5240982;28;20025;-72
2023/01/30 13:48:54;;;;;;;11.52;4.43;;;;;;;-145.79;57.96;78755.28;5242177;28;20034;-72
2023/01/30 13:51:42;;;;;;;14.82;3.92;;;;;;;-145.79;57.31;78751.03;5221435;28;20026;-72
2023/01/30 13:54:37;;;;;;;11.57;4.15;;;;;;;-145.79;57.25;78763.75;5227493;28;20473;-71
2023/01/30 13:57:34;;;;;;;16.48;4.53;;;;;;;-145.79;58.04;78761.63;5235346;28;20036;-71
2023/01/30 14:00:24;;;;;;;12.70;6.63;;;;;;;-145.79;57.37;78768.00;5231041;28;20103;-71
2023/01/30 14:03:07;;;;;;;15.63;5.30;;;;;;;-145.79;57.64;78776.47;5241466;28;20538;-71
2023/01/30 14:05:50;;;;;;;15.82;5.20;;;;;;;-145.79;57.56;78782.84;5240948;28;20429;-71
2023/01/30 14:08:25;;;;;;;17.50;5.03;;;;;;;-145.79;57.56;78780.72;5241080;28;20029;-71
2023/01/30 14:10:57;;;;;;;15.70;4.10;;;;;;;-145.79;57.35;78780.72;5241265;28;20032;-71
2023/01/30 14:13:28;;;;;;;12.68;5.03;;;;;;;-145.79;57.37;78784.97;5240524;28;20233;-70
2023/01/30 14:16:03;;;;;;;14.43;3.97;;;;;;;-145.79;57.77;78789.19;5241585;28;20475;-71
2023/01/30 14:18:37;;;;;;;14.00;5.13;;;;;;;-145.79;57.93;78789.19;5241266;28;20025;-71
2023/01/30 14:21:21;;;;;;;16.83;4.88;;;;;;;-145.79;58.26;78793.44;5241193;28;20029;-68
2023/01/30 14:23:55;;;;;;;14.48;4.57;;;;;;;-145.79;57.89;78799.81;5240468;28;20387;-72
2023/01/30 14:26:55;;;;;;;18.98;4.85;;;;;;;-145.79;58.30;78795.56;5241162;28;20025;-72
2023/01/30 14:29:38;;;;;;;12.05;4.25;;;;;;;-145.79;58.25;78812.53;5223481;28;20049;-73
2023/01/30 14:32:15;;;;;;;12.80;5.20;;;;;;;-145.79;58.37;78831.59;5241709;28;20021;-72
2023/01/30 14:35:09;;;;;;;17.20;5.10;;;;;;;-145.79;58.69;78831.59;5239861;28;20033;-72
2023/01/30 14:37:47;;;;;;;14.73;4.40;;;;;;;-145.79;58.98;78835.84;5241705;28;20427;-72
2023/01/30 14:40:21;;;;;;;15.52;5.13;;;;;;;-145.79;59.03;78840.09;5240175;28;20489;-70
2023/01/30 14:43:11;;;;;;;14.90;4.15;;;;;;;-145.79;59.43;78846.44;5238058;28;20495;-71
2023/01/30 14:45:49;;;;;;;16.98;4.88;;;;;;;-145.79;59.32;78857.06;5222781;28;20026;-71
2023/01/30 14:48:41;;;;;;;14.60;5.13;;;;;;;-145.79;58.99;78867.66;5240418;28;20465;-71
2023/01/30 14:51:25;;;;;;;11.32;3.67;;;;;;;-145.79;58.96;78865.53;5241452;28;20025;-72
2023/01/30 14:53:58;;;;;;;15.77;3.95;;;;;;;-145.79;58.78;78878.25;5240471;28;20040;-72
2023/01/30 14:57:05;;;;;;;14.15;3.75;;;;;;;-145.79;58.38;78880.38;5239891;28;20041;-72
2023/01/30 14:59:53;;;;;;;22.15;6.22;;;;;;;-145.79;58.85;78882.50;5238784;28;20045;-72
2023/01/30 15:02:27;;;;;;;20.42;5.20;;;;;;;-145.79;58.85;78888.84;5234250;28;20034;-72
2023/01/30 15:05:08;;;;;;;16.95;4.38;;;;;;;-145.79;59.16;78895.22;5234661;28;20022;-72
2023/01/30 15:07:53;;;;;;;17.20;5.30;;;;;;;-145.79;59.68;78899.47;5230647;28;20040;-73
2023/01/30 15:10:32;;;;;;;14.75;5.25;;;;;;;-145.79;59.64;78903.69;5223173;28;20477;-72
2023/01/30 15:13:44;;;;;;;16.50;5.25;;;;;;;-145.79;59.70;78899.47;5225475;28;20040;-72
2023/01/30 15:16:49;;;;;;;14.73;3.95;;;;;;;-145.79;59.95;78912.19;5218215;28;20026;-72
2023/01/30 15:19:29;;;;;;;13.63;4.30;;;;;;;-145.79;59.84;78920.66;5217022;28;20042;-72
2023/01/30 15:22:36;;;;;;;17.55;5.88;;;;;;;-145.79;59.91;78924.91;5239328;28;20033;-73
2023/01/30 15:25:26;;;;;;;16.58;5.18;;;;;;;-145.79;60.17;78929.16;5243114;28;20106;-72
2023/01/30 15:28:06;;;;;;;17.73;5.57;;;;;;;-145.79;59.67;78933.38;5245266;28;20175;-72
2023/01/30 15:30:43;;;;;;;13.20;4.57;;;;;;;-145.79;59.87;78935.50;5241333;28;20039;-72
2023/01/30 15:33:20;;;;;;;21.30;5.65;;;;;;;-145.79;59.83;78937.63;5244801;28;20033;-73
2023/01/30 15:35:51;;;;;;;17.48;5.90;;;;;;;-145.79;59.84;78946.09;5244625;28;20030;-72
2023/01/30 15:38:33;;;;;;;14.05;5.78;;;;;;;-145.79;59.72;78946.09;5243697;28;20018;-72
2023/01/30 15:41:05;;;;;;;15.77;4.70;;;;;;;-145.79;59.77;78956.72;5244586;28;20029;-71
2023/01/30 15:44:01;;;;;;;17.05;4.90;;;;;;;-145.79;59.74;78958.84;5243972;28;20387;-69
2023/01/30 15:46:55;;;;;;;13.77;5.80;;;;;;;-145.79;59.38;78952.47;5243961;28;20017;-70
2023/01/30 15:49:42;;;;;;;16.38;4.72;;;;;;;-145.79;59.74;78956.72;5243364;28;20047;-70
2023/01/30 15:52:16;;;;;;;18.25;6.30;;;;;;;-145.79;59.63;78965.19;5243090;28;20402;-71
2023/01/30 15:54:50;;;;;;;19.55;5.05;;;;;;;-145.79;59.68;78965.19;5244095;28;20116;-73
2023/01/30 15:57:32;;;;;;;20.23;6.55;;;;;;;-145.79;59.72;78973.69;5244610;28;20022;-71
2023/01/30 16:00:14;;;;;;;23.30;12.45;;;;;;;-145.79;59.05;78971.56;5222704;28;20053;-71
2023/01/30 16:02:45;;;;;;;12.50;4.85;;;;;;;-145.79;59.53;78977.91;5229236;28;20413;-72
2023/01/30 16:05:19;;;;;;;11.00;3.83;;;;;;;-145.79;59.63;78986.41;5243865;28;20028;-72
2023/01/30 16:07:53;;;;;;;15.15;5.55;;;;;;;-145.79;60.01;78994.88;5243039;28;20112;-72
2023/01/30 16:10:27;;;;;;;14.80;5.78;;;;;;;-145.79;60.31;78992.75;5243928;28;20027;-73
2023/01/30 16:13:03;;;;;;;18.75;4.68;;;;;;;-145.79;59.52;78992.75;5243397;28;20040;-72
2023/01/30 16:15:54;;;;;;;12.93;4.82;;;;;;;-145.79;59.76;78999.13;5244166;28;20029;-72
2023/01/30 16:18:52;;;;;;;15.70;4.53;;;;;;;-145.79;59.51;79001.25;5242534;28;20439;-73
2023/01/30 16:21:45;;;;;;;17.20;6.05;;;;;;;-145.79;59.49;79016.09;5243217;28;20381;-72
2023/01/30 16:24:23;;;;;;;21.35;4.85;;;;;;;-145.79;59.29;79007.59;5243199;28;20500;-71
2023/01/30 16:26:58;;;;;;;24.42;7.05;;;;;;;-145.79;59.66;79016.09;5242829;28;20068;-71
2023/01/30 16:29:33;;;;;;;16.40;5.63;;;;;;;-145.79;59.70;79018.19;5243492;28;20029;-71
2023/01/30 16:32:10;;;;;;;;;;;;;;;-145.79;59.47;79013.97;5239893;28;20366;-71
